Latest Weather Observations for Fort Denison

IDN60901

Issued at 1:31 pm EST Tuesday 27 September 2016 (issued every 10 minutes, with the page automatically refreshed every 10 minutes)

About weather observations | Map of Sydney area stations | Latest observations for Sydney area | Other Formats
Station Details ID: 066022 Name: FORT DENISON Lat: -33.86 Lon: 151.23 Height: 5.0 m
Data from the previous 72 hours. | See also: Recent months for locations in New South Wales
Date/Time
EST
Temp
°C
App
Temp
°C
Dew
Point
°C
Rel
Hum
%
Delta-T
°C
Wind Press
QNH
hPa
Press
MSL
hPa
Rain since
9am
mm
Dir  Spd
km/h
Gust
km/h
Spd
kts
Gust
kts
27/01:30pm - - - - - WSW 33 54 18 29 - - -
27/01:07pm - - - - - W 33 54 18 29 - - -
27/01:00pm - - - - - W 32 48 17 26 - - -
27/12:31pm - - - - - W 39 57 21 31 - - -
27/12:30pm - - - - - W 41 57 22 31 - - -
27/12:17pm - - - - - W 33 56 18 30 - - -
27/12:00pm - - - - - W 32 44 17 24 - - -
27/11:55am - - - - - W 28 46 15 25 - - -
27/11:30am - - - - - WNW 15 30 8 16 - - -
27/11:00am - - - - - NW 13 22 7 12 - - -
27/10:30am - - - - - N 17 26 9 14 - - -
27/10:00am - - - - - N 20 30 11 16 - - -
27/09:30am - - - - - N 22 30 12 16 - - -
27/09:00am - - - - - N 20 28 11 15 - - -
27/08:30am - - - - - NNW 22 32 12 17 - - -
27/08:00am - - - - - NNW 28 35 15 19 - - -
27/07:30am - - - - - NNW 20 28 11 15 - - -
27/07:00am - - - - - NNW 20 24 11 13 - - -
27/06:30am - - - - - NW 13 22 7 12 - - -
27/06:00am - - - - - WNW 7 13 4 7 - - -
27/05:30am - - - - - W 9 13 5 7 - - -
27/05:00am - - - - - W 11 17 6 9 - - -
27/04:30am - - - - - W 15 19 8 10 - - -
27/04:00am - - - - - W 11 17 6 9 - - -
27/03:30am - - - - - WNW 13 17 7 9 - - -
27/03:00am - - - - - WNW 9 15 5 8 - - -
27/02:30am - - - - - WNW 13 17 7 9 - - -
27/02:00am - - - - - WNW 11 15 6 8 - - -
27/01:30am - - - - - WNW 13 17 7 9 - - -
27/01:00am - - - - - W 22 30 12 16 - - -
27/12:30am - - - - - W 17 24 9 13 - - -
27/12:00am - - - - - WNW 11 15 6 8 - - -
 
Date/Time
EST
Temp
°C
App
Temp
°C
Dew
Point
°C
Rel
Hum
%
Delta-T
°C
Wind Press
QNH
hPa
Press
MSL
hPa
Rain since
9am
mm
Dir  Spd
km/h
Gust
km/h
Spd
kts
Gust
kts
26/11:30pm - - - - - WNW 11 15 6 8 - - -
26/11:00pm - - - - - WNW 11 15 6 8 - - -
26/10:30pm - - - - - WNW 11 17 6 9 - - -
26/10:00pm - - - - - W 15 20 8 11 - - -
26/09:30pm - - - - - W 13 20 7 11 - - -
26/09:00pm - - - - - W 15 19 8 10 - - -
26/08:30pm - - - - - W 17 26 9 14 - - -
26/08:00pm - - - - - W 13 20 7 11 - - -
26/07:30pm - - - - - W 9 15 5 8 - - -
26/07:00pm - - - - - SSW 6 7 3 4 - - -
26/06:30pm - - - - - SSW 9 13 5 7 - - -
26/06:00pm - - - - - SSW 11 17 6 9 - - -
26/05:30pm - - - - - S 11 19 6 10 - - -
26/05:00pm - - - - - SSE 15 20 8 11 - - -
26/04:30pm - - - - - ESE 15 22 8 12 - - -
26/04:00pm - - - - - ESE 15 19 8 10 - - -
26/03:30pm - - - - - ESE 17 22 9 12 - - -
26/03:00pm - - - - - E 19 22 10 12 - - -
26/02:30pm - - - - - E 19 22 10 12 - - -
26/02:00pm - - - - - ESE 17 22 9 12 - - -
26/01:30pm - - - - - NW 6 17 3 9 - - -
26/01:00pm - - - - - ENE 6 9 3 5 - - -
26/12:30pm - - - - - NW 9 17 5 9 - - -
26/12:00pm - - - - - W 15 20 8 11 - - -
26/11:30am - - - - - WNW 17 22 9 12 - - -
26/11:00am - - - - - W 17 30 9 16 - - -
26/10:30am - - - - - W 19 30 10 16 - - -
26/10:00am - - - - - W 20 32 11 17 - - -
26/09:30am - - - - - W 24 33 13 18 - - -
26/09:00am - - - - - WSW 20 35 11 19 - - -
26/08:30am - - - - - WSW 20 32 11 17 - - -
26/08:00am - - - - - WSW 22 37 12 20 - - -
26/07:30am - - - - - SW 20 30 11 16 - - -
26/07:00am - - - - - SW 19 28 10 15 - - -
26/06:30am - - - - - SW 19 28 10 15 - - -
26/06:00am - - - - - SW 19 26 10 14 - - -
26/05:30am - - - - - SSW 20 28 11 15 - - -
26/05:00am - - - - - SSW 22 32 12 17 - - -
26/04:30am - - - - - SW 17 26 9 14 - - -
26/04:00am - - - - - WSW 15 22 8 12 - - -
26/03:30am - - - - - W 17 20 9 11 - - -
26/03:00am - - - - - WSW 15 20 8 11 - - -
26/02:30am - - - - - SW 15 28 8 15 - - -
26/02:00am - - - - - SSW 19 28 10 15 - - -
26/01:30am - - - - - SSW 15 22 8 12 - - -
26/01:00am - - - - - SSW 17 26 9 14 - - -
26/12:30am - - - - - WSW 17 24 9 13 - - -
26/12:00am - - - - - SW 17 24 9 13 - - -
 
Date/Time
EST
Temp
°C
App
Temp
°C
Dew
Point
°C
Rel
Hum
%
Delta-T
°C
Wind Press
QNH
hPa
Press
MSL
hPa
Rain since
9am
mm
Dir  Spd
km/h
Gust
km/h
Spd
kts
Gust
kts
25/11:30pm - - - - - W 19 24 10 13 - - -
25/11:00pm - - - - - W 20 24 11 13 - - -
25/10:30pm - - - - - W 15 20 8 11 - - -
25/10:00pm - - - - - W 15 20 8 11 - - -
25/09:30pm - - - - - WSW 11 19 6 10 - - -
25/09:00pm - - - - - WSW 11 19 6 10 - - -
25/08:30pm - - - - - SSW 11 19 6 10 - - -
25/08:00pm - - - - - SW 13 19 7 10 - - -
25/07:30pm - - - - - SSW 13 22 7 12 - - -
25/07:00pm - - - - - SSW 13 19 7 10 - - -
25/06:30pm - - - - - SSW 17 30 9 16 - - -
25/06:00pm - - - - - S 13 20 7 11 - - -
25/05:30pm - - - - - S 17 24 9 13 - - -
25/05:00pm - - - - - S 13 19 7 10 - - -
25/04:30pm - - - - - SSW 11 19 6 10 - - -
25/04:00pm - - - - - S 7 11 4 6 - - -
25/03:30pm - - - - - S 11 17 6 9 - - -
25/03:00pm - - - - - SSE 20 32 11 17 - - -
25/02:30pm - - - - - E 6 11 3 6 - - -
25/02:00pm - - - - - NE 7 15 4 8 - - -
25/01:30pm - - - - - WSW 13 33 7 18 - - -
25/01:00pm - - - - - WNW 13 22 7 12 - - -
25/12:30pm - - - - - WSW 17 32 9 17 - - -
25/12:00pm - - - - - WSW 24 32 13 17 - - -
25/11:30am - - - - - WNW 17 22 9 12 - - -
25/11:00am - - - - - W 15 19 8 10 - - -
25/10:30am - - - - - WNW 11 17 6 9 - - -
25/10:00am - - - - - WNW 11 15 6 8 - - -
25/09:30am - - - - - WNW 15 19 8 10 - - -
25/09:00am - - - - - W 15 22 8 12 - - -
25/08:30am - - - - - W 11 15 6 8 - - -
25/08:00am - - - - - W 11 13 6 7 - - -
25/07:30am - - - - - W 13 17 7 9 - - -
25/07:00am - - - - - WNW 15 19 8 10 - - -
25/06:30am - - - - - WNW 13 20 7 11 - - -
25/06:00am - - - - - W 11 15 6 8 - - -
25/05:30am - - - - - WNW 9 11 5 6 - - -
25/05:00am - - - - - W 11 13 6 7 - - -
25/04:30am - - - - - W 13 15 7 8 - - -
25/04:00am - - - - - WNW 15 20 8 11 - - -
25/03:30am - - - - - W 11 20 6 11 - - -
25/03:00am - - - - - WNW 15 19 8 10 - - -
25/02:30am - - - - - WNW 15 24 8 13 - - -
25/02:00am - - - - - W 15 19 8 10 - - -
25/01:30am - - - - - W 11 15 6 8 - - -
25/01:00am - - - - - WNW 11 13 6 7 - - -
25/12:30am - - - - - W 7 9 4 5 - - -
25/12:00am - - - - - WNW 9 11 5 6 - - -
 
Date/Time
EST
Temp
°C
App
Temp
°C
Dew
Point
°C
Rel
Hum
%
Delta-T
°C
Wind Press
QNH
hPa
Press
MSL
hPa
Rain since
9am
mm
Dir  Spd
km/h
Gust
km/h
Spd
kts
Gust
kts
24/11:30pm - - - - - W 7 11 4 6 - - -
24/11:00pm - - - - - NNW 7 11 4 6 - - -
24/10:30pm - - - - - NNW 6 9 3 5 - - -
24/10:00pm - - - - - N 4 9 2 5 - - -
24/09:30pm - - - - - N 4 6 2 3 - - -
24/09:00pm - - - - - N 7 11 4 6 - - -
24/08:30pm - - - - - NE 7 15 4 8 - - -
24/08:00pm - - - - - ENE 6 11 3 6 - - -
24/07:30pm - - - - - E 9 13 5 7 - - -
24/07:00pm - - - - - E 11 17 6 9 - - -
24/06:30pm - - - - - ENE 13 17 7 9 - - -
24/06:00pm - - - - - ENE 15 20 8 11 - - -
24/05:30pm - - - - - ENE 17 22 9 12 - - -
24/05:00pm - - - - - ENE 15 20 8 11 - - -
24/04:30pm - - - - - ENE 15 19 8 10 - - -
24/04:00pm - - - - - E 15 19 8 10 - - -
24/03:30pm - - - - - ESE 17 20 9 11 - - -
24/03:00pm - - - - - ESE 17 22 9 12 - - -
24/02:30pm - - - - - ESE 15 19 8 10 - - -
24/02:00pm - - - - - E 17 19 9 10 - - -

Latest Capital City Observations: Canberra | Sydney | Melbourne | Brisbane | Adelaide | Perth | Hobart | Darwin

Other Formats:

Comma delimited format used in spreadsheet applications
http://www.bom.gov.au/fwo/IDN60901/IDN60901.94769.axf

JavaScript Object Notation format (JSON) in row-major order
http://www.bom.gov.au/fwo/IDN60901/IDN60901.94769.json